Berlin — 9HA2295 — position and weather

sailwx.info

Track history (hours):
 
Tides and Currents Weather Stations Pressure Air Temp Water Temp Dewpoint Dewpoint Depression Visibility Wind Speed Wind Dir Waves Ship Positions

Berlin

Last reported at 2014-Nov-12 21:33 UTC. Time now 2014-Nov-20 22:52 UTC.
Position N 35°52' E 026°26'.
Warning: this ship's position is 8 days out of date.

Length 140 m; draft 5 m.

Type: Passenger vessel. MMSI: 248277000.

Date/timePositionNaut miles runAvg speedWind from/ knotsBaromVisibWave heightAir tempDewpointWater temp
2014-Nov-12 21:33N 35°52' E 026°26'1413.5
2014-Nov-12 20:32N 35°46' E 026°11'1313.5
2014-Nov-12 19:33N 35°40' E 025°56'1413.6
2014-Nov-12 18:33N 35°34' E 025°41'1413.5
2014-Nov-12 17:33N 35°28' E 025°27'1313.4
2014-Nov-12 16:34N 35°22' E 025°12'3 1.4
2014-Nov-12 14:26N 35°21' E 025°09'0 0.0
2014-Nov-12 13:26N 35°21' E 025°09'0 0.0
2014-Nov-12 12:32N 35°21' E 025°09'0 0.0
2014-Nov-12 10:25N 35°21' E 025°09'19 6.4
2014-Nov-12 07:30N 35°37' E 024°59'7 7.5
2014-Nov-12 06:33N 35°44' E 024°54'8 7.6
2014-Nov-12 05:33N 35°50' E 024°50'8 8.3
2014-Nov-12 04:33N 35°57' E 024°45'8 8.3
2014-Nov-12 03:33N 36°04' E 024°39'8 8.4
2014-Nov-12 02:33N 36°12' E 024°34'8 8.2
2014-Nov-12 01:33N 36°19' E 024°29'8 8.2
2014-Nov-12 00:33N 36°26' E 024°24'8 8.3
2014-Nov-11 23:33N 36°33' E 024°19'9 8.7
2014-Nov-11 22:33N 36°41' E 024°14'1313.6
2014-Nov-11 21:33N 36°53' E 024°08'1413.8
2014-Nov-11 20:33N 37°06' E 024°01'1513.4
2014-Nov-11 19:28N 37°19' E 023°54'1213.5
2014-Nov-11 18:33N 37°31' E 023°47'1413.7
2014-Nov-11 17:33N 37°43' E 023°40'1312.6
2014-Nov-11 16:33N 37°55' E 023°37'1 1.5
2014-Nov-11 15:33N 37°56' E 023°38'0 0.0
2014-Nov-11 14:33N 37°56' E 023°38'0 0.0
2014-Nov-11 13:33N 37°56' E 023°38'0 0.0
2014-Nov-11 12:33N 37°56' E 023°38'0 0.0
2014-Nov-11 11:33N 37°56' E 023°38'0 0.0
2014-Nov-11 10:33N 37°56' E 023°38'0 0.0
2014-Nov-11 09:33N 37°56' E 023°38'2 1.6
2014-Nov-11 08:33N 37°55' E 023°36'9 9.2
2014-Nov-11 07:33N 37°50' E 023°27'1312.1
2014-Nov-11 06:29N 37°53' E 023°11'348 9.7
2014-Nov-09 18:31N 37°52' E 015°49'1313.3
2014-Nov-09 17:31N 37°59' E 015°35'1212.6
2014-Nov-09 16:33N 38°12' E 015°35'1 0.1
2014-Nov-09 06:24N 38°11' E 015°33'169 7.1
2014-Nov-08 06:33N 40°50' E 014°17'5 5.3
2014-Nov-08 05:33N 40°46' E 014°12'7 7.1
2014-Nov-08 04:33N 40°40' E 014°07'7 6.9
2014-Nov-08 03:34N 40°38' E 013°58'7 6.5
2014-Nov-08 02:33N 40°40' E 013°49'8 7.5
2014-Nov-08 01:33N 40°45' E 013°42'8 7.9
2014-Nov-08 00:34N 40°50' E 013°33'8 7.9
2014-Nov-07 23:33N 40°54' E 013°25'173 9.0
2014-Nov-07 04:21N 42°35' E 010°16'2413.2
2014-Nov-07 02:32N 42°49' E 009°50'10712.8
2014-Nov-06 18:09N 43°35' E 007°37'610.7
2014-Nov-06 17:33N 43°37' E 007°29'10 9.7
2014-Nov-06 16:34N 43°41' E 007°17'0 0.4
2014-Nov-06 15:17N 43°42' E 007°17'0 0.0
2014-Nov-06 14:29N 43°42' E 007°17'0 0.0
2014-Nov-06 13:29N 43°42' E 007°17'0 0.0
2014-Nov-06 12:29N 43°42' E 007°17'0 0.0
2014-Nov-06 11:29N 43°42' E 007°17'0 0.0
2014-Nov-06 10:29N 43°42' E 007°17'0 0.0
2014-Nov-06 09:29N 43°42' E 007°17'0 0.0
2014-Nov-06 08:17N 43°42' E 007°17'0 0.0
2014-Nov-06 07:29N 43°42' E 007°17'0 0.0
2014-Nov-06 06:29N 43°42' E 007°17'0 0.0
2014-Nov-06 05:29N 43°42' E 007°17'0 0.0
2014-Nov-06 04:29N 43°42' E 007°17'0 0.0
2014-Nov-06 03:29N 43°42' E 007°17'0 0.0
2014-Nov-06 02:29N 43°42' E 007°17'0 0.0
2014-Nov-06 01:30N 43°42' E 007°17'0 0.0
2014-Nov-06 00:24N 43°42' E 007°17'0 0.0
2014-Nov-05 23:30N 43°42' E 007°17'0 0.0
2014-Nov-05 22:30N 43°42' E 007°17'0 0.0
2014-Nov-05 21:30N 43°42' E 007°17'0 0.0
2014-Nov-05 20:24N 43°42' E 007°17'0 0.0
2014-Nov-05 19:30N 43°42' E 007°17'0 0.0
2014-Nov-05 18:30N 43°42' E 007°17'0 0.0
2014-Nov-05 17:30N 43°42' E 007°17'0 0.0
2014-Nov-05 16:24N 43°42' E 007°17'0 0.0
2014-Nov-05 15:24N 43°42' E 007°17'0 0.0
2014-Nov-05 14:30N 43°42' E 007°17'0 0.0
2014-Nov-05 13:24N 43°42' E 007°17'0 0.0
2014-Nov-05 12:30N 43°42' E 007°17'0 0.0
2014-Nov-05 11:30N 43°42' E 007°17'2 1.8
2014-Nov-05 10:33N 43°40' E 007°17'1312.7
2014-Nov-05 09:33N 43°29' E 007°08'2813.9
2014-Nov-05 07:33N 43°08' E 006°42'1413.7
2014-Nov-05 06:33N 42°59' E 006°28'1414.1
2014-Nov-05 05:33N 42°57' E 006°09'1414.1
2014-Nov-05 04:33N 42°58' E 005°50'1313.4
2014-Nov-05 03:33N 43°00' E 005°32'1413.7
2014-Nov-05 02:33N 43°02' E 005°13'1513.8
2014-Nov-05 01:29N 43°04' E 004°53'1413.8
2014-Nov-05 00:29N 43°06' E 004°35'1314.0
2014-Nov-04 23:33N 43°07' E 004°17'1414.2
2014-Nov-04 22:33N 43°09' E 003°58'1111.1
2014-Nov-04 21:33N 43°04' E 003°44'1414.2
2014-Nov-04 20:33N 42°50' E 003°39'1414.1
2014-Nov-04 19:33N 42°36' E 003°34'1414.4
2014-Nov-04 18:33N 42°23' E 003°29'1313.2
2014-Nov-04 17:33N 42°10' E 003°24'1313.0
2014-Nov-04 16:33N 41°57' E 003°18'1313.3
2014-Nov-04 15:33N 41°46' E 003°09'1514.4
2014-Nov-04 14:30N 41°33' E 002°58'1314.2
2014-Nov-04 13:33N 41°22' E 002°48'1614.7
2014-Nov-04 12:29N 41°09' E 002°37'1314.1
2014-Nov-04 11:33N 40°58' E 002°27'1414.2
2014-Nov-04 10:33N 40°46' E 002°17'1414.0
2014-Nov-04 09:33N 40°35' E 002°06'1414.3
2014-Nov-04 08:33N 40°23' E 001°56'1414.5
2014-Nov-04 07:33N 40°11' E 001°45'1514.5
2014-Nov-04 06:33N 39°59' E 001°35'1414.4
2014-Nov-04 05:33N 39°47' E 001°24'14714.2
2014-Nov-03 19:12N 37°45' W 000°21'113.3
2014-Nov-03 19:08N 37°44' W 000°22'814.1
2014-Nov-03 18:33N 37°37' W 000°27'514.3
2014-Nov-03 18:12N 37°33' W 000°31'614.5
2014-Nov-03 17:47N 37°29' W 000°36'313.8
2014-Nov-03 17:32N 37°27' W 000°40'1414.4
2014-Nov-03 16:33N 37°17' W 000°53'22714.2
2014-Nov-03 00:33N 35°58' W 005°18'  
Track history (hours):
 
Tides and Currents Weather Stations Pressure Air Temp Water Temp Dewpoint Dewpoint Depression Visibility Wind Speed Wind Dir Waves Ship Positions

Berlin

Last reported at 2014-Nov-12 21:33 UTC. Time now 2014-Nov-20 22:52 UTC.
Position N 35°52' E 026°26'.
Warning: this ship's position is 8 days out of date.

Length 140 m; draft 5 m.

Type: Passenger vessel. MMSI: 248277000.

Date/timePositionNaut miles runAvg speedWind from/ knotsBaromVisibWave heightAir tempDewpointWater temp
2014-Nov-12 21:33N 35°52' E 026°26'1413.5
2014-Nov-12 20:32N 35°46' E 026°11'1313.5
2014-Nov-12 19:33N 35°40' E 025°56'1413.6
2014-Nov-12 18:33N 35°34' E 025°41'1413.5
2014-Nov-12 17:33N 35°28' E 025°27'1313.4
2014-Nov-12 16:34N 35°22' E 025°12'3 1.4
2014-Nov-12 14:26N 35°21' E 025°09'0 0.0
2014-Nov-12 13:26N 35°21' E 025°09'0 0.0
2014-Nov-12 12:32N 35°21' E 025°09'0 0.0
2014-Nov-12 10:25N 35°21' E 025°09'19 6.4
2014-Nov-12 07:30N 35°37' E 024°59'7 7.5
2014-Nov-12 06:33N 35°44' E 024°54'8 7.6
2014-Nov-12 05:33N 35°50' E 024°50'8 8.3
2014-Nov-12 04:33N 35°57' E 024°45'8 8.3
2014-Nov-12 03:33N 36°04' E 024°39'8 8.4
2014-Nov-12 02:33N 36°12' E 024°34'8 8.2
2014-Nov-12 01:33N 36°19' E 024°29'8 8.2
2014-Nov-12 00:33N 36°26' E 024°24'8 8.3
2014-Nov-11 23:33N 36°33' E 024°19'9 8.7
2014-Nov-11 22:33N 36°41' E 024°14'1313.6
2014-Nov-11 21:33N 36°53' E 024°08'1413.8
2014-Nov-11 20:33N 37°06' E 024°01'1513.4
2014-Nov-11 19:28N 37°19' E 023°54'1213.5
2014-Nov-11 18:33N 37°31' E 023°47'1413.7
2014-Nov-11 17:33N 37°43' E 023°40'1312.6
2014-Nov-11 16:33N 37°55' E 023°37'1 1.5
2014-Nov-11 15:33N 37°56' E 023°38'0 0.0
2014-Nov-11 14:33N 37°56' E 023°38'0 0.0
2014-Nov-11 13:33N 37°56' E 023°38'0 0.0
2014-Nov-11 12:33N 37°56' E 023°38'0 0.0
2014-Nov-11 11:33N 37°56' E 023°38'0 0.0
2014-Nov-11 10:33N 37°56' E 023°38'0 0.0
2014-Nov-11 09:33N 37°56' E 023°38'2 1.6
2014-Nov-11 08:33N 37°55' E 023°36'9 9.2
2014-Nov-11 07:33N 37°50' E 023°27'1312.1
2014-Nov-11 06:29N 37°53' E 023°11'348 9.7
2014-Nov-09 18:31N 37°52' E 015°49'1313.3
2014-Nov-09 17:31N 37°59' E 015°35'1212.6
2014-Nov-09 16:33N 38°12' E 015°35'1 0.1
2014-Nov-09 06:24N 38°11' E 015°33'169 7.1
2014-Nov-08 06:33N 40°50' E 014°17'5 5.3
2014-Nov-08 05:33N 40°46' E 014°12'7 7.1
2014-Nov-08 04:33N 40°40' E 014°07'7 6.9
2014-Nov-08 03:34N 40°38' E 013°58'7 6.5
2014-Nov-08 02:33N 40°40' E 013°49'8 7.5
2014-Nov-08 01:33N 40°45' E 013°42'8 7.9
2014-Nov-08 00:34N 40°50' E 013°33'8 7.9
2014-Nov-07 23:33N 40°54' E 013°25'173 9.0
2014-Nov-07 04:21N 42°35' E 010°16'2413.2
2014-Nov-07 02:32N 42°49' E 009°50'10712.8
2014-Nov-06 18:09N 43°35' E 007°37'610.7
2014-Nov-06 17:33N 43°37' E 007°29'10 9.7
2014-Nov-06 16:34N 43°41' E 007°17'0 0.4
2014-Nov-06 15:17N 43°42' E 007°17'0 0.0
2014-Nov-06 14:29N 43°42' E 007°17'0 0.0
2014-Nov-06 13:29N 43°42' E 007°17'0 0.0
2014-Nov-06 12:29N 43°42' E 007°17'0 0.0
2014-Nov-06 11:29N 43°42' E 007°17'0 0.0
2014-Nov-06 10:29N 43°42' E 007°17'0 0.0
2014-Nov-06 09:29N 43°42' E 007°17'0 0.0
2014-Nov-06 08:17N 43°42' E 007°17'0 0.0
2014-Nov-06 07:29N 43°42' E 007°17'0 0.0
2014-Nov-06 06:29N 43°42' E 007°17'0 0.0
2014-Nov-06 05:29N 43°42' E 007°17'0 0.0
2014-Nov-06 04:29N 43°42' E 007°17'0 0.0
2014-Nov-06 03:29N 43°42' E 007°17'0 0.0
2014-Nov-06 02:29N 43°42' E 007°17'0 0.0
2014-Nov-06 01:30N 43°42' E 007°17'0 0.0
2014-Nov-06 00:24N 43°42' E 007°17'0 0.0
2014-Nov-05 23:30N 43°42' E 007°17'0 0.0
2014-Nov-05 22:30N 43°42' E 007°17'0 0.0
2014-Nov-05 21:30N 43°42' E 007°17'0 0.0
2014-Nov-05 20:24N 43°42' E 007°17'0 0.0
2014-Nov-05 19:30N 43°42' E 007°17'0 0.0
2014-Nov-05 18:30N 43°42' E 007°17'0 0.0
2014-Nov-05 17:30N 43°42' E 007°17'0 0.0
2014-Nov-05 16:24N 43°42' E 007°17'0 0.0
2014-Nov-05 15:24N 43°42' E 007°17'0 0.0
2014-Nov-05 14:30N 43°42' E 007°17'0 0.0
2014-Nov-05 13:24N 43°42' E 007°17'0 0.0
2014-Nov-05 12:30N 43°42' E 007°17'0 0.0
2014-Nov-05 11:30N 43°42' E 007°17'2 1.8
2014-Nov-05 10:33N 43°40' E 007°17'1312.7
2014-Nov-05 09:33N 43°29' E 007°08'2813.9
2014-Nov-05 07:33N 43°08' E 006°42'1413.7
2014-Nov-05 06:33N 42°59' E 006°28'1414.1
2014-Nov-05 05:33N 42°57' E 006°09'1414.1
2014-Nov-05 04:33N 42°58' E 005°50'1313.4
2014-Nov-05 03:33N 43°00' E 005°32'1413.7
2014-Nov-05 02:33N 43°02' E 005°13'1513.8
2014-Nov-05 01:29N 43°04' E 004°53'1413.8
2014-Nov-05 00:29N 43°06' E 004°35'1314.0
2014-Nov-04 23:33N 43°07' E 004°17'1414.2
2014-Nov-04 22:33N 43°09' E 003°58'1111.1
2014-Nov-04 21:33N 43°04' E 003°44'1414.2
2014-Nov-04 20:33N 42°50' E 003°39'1414.1
2014-Nov-04 19:33N 42°36' E 003°34'1414.4
2014-Nov-04 18:33N 42°23' E 003°29'1313.2
2014-Nov-04 17:33N 42°10' E 003°24'1313.0
2014-Nov-04 16:33N 41°57' E 003°18'1313.3
2014-Nov-04 15:33N 41°46' E 003°09'1514.4
2014-Nov-04 14:30N 41°33' E 002°58'1314.2
2014-Nov-04 13:33N 41°22' E 002°48'1614.7
2014-Nov-04 12:29N 41°09' E 002°37'1314.1
2014-Nov-04 11:33N 40°58' E 002°27'1414.2
2014-Nov-04 10:33N 40°46' E 002°17'1414.0
2014-Nov-04 09:33N 40°35' E 002°06'1414.3
2014-Nov-04 08:33N 40°23' E 001°56'1414.5
2014-Nov-04 07:33N 40°11' E 001°45'1514.5
2014-Nov-04 06:33N 39°59' E 001°35'1414.4
2014-Nov-04 05:33N 39°47' E 001°24'14714.2
2014-Nov-03 19:12N 37°45' W 000°21'113.3
2014-Nov-03 19:08N 37°44' W 000°22'814.1
2014-Nov-03 18:33N 37°37' W 000°27'514.3
2014-Nov-03 18:12N 37°33' W 000°31'614.5
2014-Nov-03 17:47N 37°29' W 000°36'313.8
2014-Nov-03 17:32N 37°27' W 000°40'1414.4
2014-Nov-03 16:33N 37°17' W 000°53'22714.2
2014-Nov-03 00:33N 35°58' W 005°18'  

Dump ship's entire track history